Wesson, MS

3:55 PM CDT on July 06, 2015 (GMT -0500)
Brookhaven | | Change Station
CLOSE
Current Station
Airport
Location: Brookhaven,
Elevation: 489 ft
Nearby Weather Stations

Elev 489 ft 31.61 °N, 90.41 °W | Updated 20 minutes ago

Clear
Clear
88 °F
Feels Like 100 °F
N
7
Wind Variable Wind from South

Today
High -- | Low -- °F
--% Chance of Precip.
Yesterday
High -- | Low -- °F
Precip. -- in
6:02 AM 8:10 PM
Waning Gibbous, 72% visible
Pressure 30.14 in
Visibility -9999.0 miles
Clouds Few 3600 ft
Heat Index 100 °F
Dew Point 77 °F
Humidity 70%
Rainfall 0.00 in
Snow Depth Not available.
UV 8 out of 12
Pollen 3.40 out of 12
Air Quality Not available.
Flu Activity Not available.
METAR K1R7 062035Z AUTO 19006KT FEW036 31/25 A3014 RMK AO2

More Conditions Fewer Conditions

Pressure 30.14 in
Visibility -9999.0 miles
Clouds Few 3600 ft
Heat Index 100 °F
Dew Point 77 °F
Humidity 70%
Rainfall 0.00 in
Snow Depth Not available.
UV 8 out of 12
Pollen 3.40 out of 12
Air Quality Not available.
Flu Activity Not available.
METAR K1R7 062035Z AUTO 19006KT FEW036 31/25 A3014 RMK AO2

More Conditions Fewer Conditions

10-Day Weather Forecast

×

Almanac

Astronomy

Jul. 06, 2015 Rise Set
Actual Time
Civil Twilight
Nautical Twilight
Astronomical Twilight
Moon
Length of Visible Light
Length of Day
Tomorrow will be .
, % of the Moon is Illuminated

Today's Extremes

State Highs State Lows

Community

WunderPhotos

Upload Photos

1,835,638 photos uploaded!

WunderBlogs® & News

Nearby

Air Quality

  Air Quality AQ Index Pollutant
Not available.

Snow Depth

Station Depth Elevation

Earthquake Activity

City Distance Mag. Time & Date
Minimum magnitude displayed is 2.5.

Coastal Water Temperatures

Place Temperature

Stations

Nearby Weather Stations

Station Location Temp. Windchill Dew Point Humidity Wind Precip. Elev Updated Type